Time;durP1;ratioP1;P1;durP2;ratioP2;P2;SDS_P1;SDS_P2;PMS_P1;PMS_P2;Temp;Humidity;BMP_temperature;BMP_pressure;BME280_temperature;BME280_humidity;BME280_pressure;Samples;Min_cycle;Max_cycle;Signal;HPM_P1;HPM_P2
2022/09/03 00:01:19;;;;;;;;;;;;;;;23.54;62.56;100682.88;7405778;19;1514;-70
2022/09/03 00:03:50;;;;;;;;;;;;;;;23.48;62.82;100694.34;7411045;19;1644;-70
2022/09/03 00:06:22;;;;;;;;;;;;;;;23.51;62.65;100707.50;7411740;19;1487;-70
2022/09/03 00:08:58;;;;;;;;;;;;;;;23.56;62.70;100715.97;7410750;19;1513;-70
2022/09/03 00:11:31;;;;;;;;;;;;;;;23.68;62.42;100721.88;7410817;19;1321;-70
2022/09/03 00:14:04;;;;;;;;;;;;;;;23.70;62.51;100720.69;7409221;19;1853;-70
2022/09/03 00:16:44;;;;;;;;;;;;;;;23.68;62.56;100728.13;7410438;19;1687;-70
2022/09/03 00:19:17;;;;;;;;;;;;;;;23.64;62.35;100724.06;7408720;19;1713;-70
2022/09/03 00:21:48;;;;;;;;;;;;;;;23.81;62.04;100728.50;7407713;19;1479;-70
2022/09/03 00:24:18;;;;;;;;;;;;;;;23.66;62.27;100724.75;7411242;19;1509;-70
2022/09/03 00:26:49;;;;;;;;;;;;;;;23.62;62.34;100726.09;7408431;19;1818;-70
2022/09/03 00:29:21;;;;;;;;;;;;;;;23.68;62.06;100738.06;7409792;19;1529;-70
2022/09/03 00:31:52;;;;;;;;;;;;;;;23.79;61.93;100748.56;7410974;19;1584;-70
2022/09/03 00:34:23;;;;;;;;;;;;;;;23.76;61.84;100759.69;7410221;19;1850;-70
2022/09/03 00:36:51;;;;;;;;;;;;;;;23.64;61.66;100751.06;7410037;19;1541;-70
2022/09/03 00:39:21;;;;;;;;;;;;;;;23.74;61.76;100749.03;7409090;19;1514;-70
2022/09/03 00:41:58;;;;;;;;;;;;;;;23.79;62.20;100760.19;7409680;19;1623;-70
2022/09/03 00:44:38;;;;;;;;;;;;;;;23.70;62.10;100761.19;7409599;19;1565;-70
2022/09/03 00:47:10;;;;;;;;;;;;;;;23.64;62.41;100756.47;7409591;19;1497;-70
2022/09/03 00:49:46;;;;;;;;;;;;;;;23.61;62.23;100764.88;7409989;19;1337;-70
2022/09/03 00:52:20;;;;;;;;;;;;;;;23.65;62.17;100765.38;7408425;19;1542;-70
2022/09/03 00:54:54;;;;;;;;;;;;;;;23.68;61.83;100767.78;7407433;19;1868;-70
2022/09/03 00:57:28;;;;;;;;;;;;;;;23.68;61.97;100755.09;7402956;19;1588;-70
2022/09/03 01:00:04;;;;;;;;;;;;;;;23.66;61.92;100751.72;7407318;19;1593;-70
2022/09/03 01:02:38;;;;;;;;;;;;;;;23.64;61.96;100748.34;7403908;19;1713;-70
2022/09/03 01:05:09;;;;;;;;;;;;;;;23.61;61.98;100751.38;7406698;19;1648;-70
2022/09/03 01:07:41;;;;;;;;;;;;;;;23.58;61.96;100763.34;7403824;19;1578;-70
2022/09/03 01:10:15;;;;;;;;;;;;;;;23.49;61.97;100758.09;7408427;19;1631;-70
2022/09/03 01:12:49;;;;;;;;;;;;;;;23.60;61.83;100777.53;7408697;19;1627;-70
2022/09/03 01:15:24;;;;;;;;;;;;;;;23.59;61.74;100772.28;7406647;19;1858;-60
2022/09/03 01:18:00;;;;;;;;;;;;;;;23.58;61.82;100774.16;7407468;19;1355;-60
2022/09/03 01:20:35;;;;;;;;;;;;;;;23.57;61.73;100777.00;7408448;19;1529;-60
2022/09/03 01:23:24;;;;;;;;;;;;;;;23.59;61.61;100778.53;7405337;19;1673;-60
2022/09/03 01:25:56;;;;;;;;;;;;;;;23.57;61.56;100775.16;7408143;19;1727;-60
2022/09/03 01:28:32;;;;;;;;;;;;;;;23.52;61.17;100771.28;7408043;19;1305;-60
2022/09/03 01:31:10;;;;;;;;;;;;;;;23.51;61.36;100774.97;7408235;19;1544;-60
2022/09/03 01:33:41;;;;;;;;;;;;;;;23.54;61.49;100764.69;7408238;19;1280;-60
2022/09/03 01:36:13;;;;;;;;;;;;;;;23.49;61.49;100779.69;7405708;19;1842;-60
2022/09/03 01:38:45;;;;;;;;;;;;;;;23.43;61.20;100773.09;7408009;19;1414;-60
2022/09/03 01:44:12;;;;;;;;;;;;;;;23.45;61.14;100770.25;7408736;19;1478;-60
2022/09/03 01:46:44;;;;;;;;;;;;;;;23.42;61.14;100771.44;7405794;19;1499;-60
2022/09/03 01:49:19;;;;;;;;;;;;;;;23.38;61.29;100764.69;7407738;19;1541;-60
2022/09/03 01:51:48;;;;;;;;;;;;;;;23.40;61.02;100778.84;7405473;19;1638;-60
2022/09/03 01:54:31;;;;;;;;;;;;;;;23.34;60.92;100776.81;7407477;19;1868;-60
2022/09/03 01:57:25;;;;;;;;;;;;;;;23.32;61.19;100768.88;7406719;19;1625;-60
2022/09/03 01:59:59;;;;;;;;;;;;;;;23.34;60.75;100761.44;7403583;19;1777;-60
2022/09/03 02:02:29;;;;;;;;;;;;;;;23.39;60.80;100769.88;7398506;19;1424;-70
2022/09/03 02:05:01;;;;;;;;;;;;;;;23.42;60.49;100766.88;7408208;19;1592;-70
2022/09/03 02:07:32;;;;;;;;;;;;;;;23.37;60.37;100769.19;7406830;19;1604;-70
2022/09/03 02:10:00;;;;;;;;;;;;;;;23.42;60.28;100766.88;7406503;19;1617;-70
2022/09/03 02:12:32;;;;;;;;;;;;;;;23.43;60.61;100752.34;7407284;19;1529;-70
2022/09/03 02:15:05;;;;;;;;;;;;;;;23.50;60.80;100767.91;7407145;19;1851;-70
2022/09/03 02:17:34;;;;;;;;;;;;;;;23.45;60.38;100767.53;7405187;19;1348;-69
2022/09/03 02:20:05;;;;;;;;;;;;;;;23.45;60.54;100781.03;7406286;19;1622;-67
2022/09/03 02:22:34;;;;;;;;;;;;;;;23.42;59.81;100768.72;7403493;19;1465;-70
2022/09/03 02:25:03;;;;;;;;;;;;;;;23.29;59.59;100771.88;7406521;19;1579;-70
2022/09/03 02:27:32;;;;;;;;;;;;;;;23.27;59.25;100768.50;7406260;19;1569;-69
2022/09/03 02:30:00;;;;;;;;;;;;;;;23.12;59.72;100770.13;7405806;19;1561;-70
2022/09/03 02:32:32;;;;;;;;;;;;;;;22.88;59.83;100760.03;7406396;19;1585;-70
2022/09/03 02:35:00;;;;;;;;;;;;;;;22.75;59.69;100780.22;7403908;19;1856;-70
2022/09/03 02:37:29;;;;;;;;;;;;;;;22.93;59.59;100777.44;7405461;19;1866;-70
2022/09/03 02:39:57;;;;;;;;;;;;;;;22.96;59.50;100778.97;7404861;19;1339;-70
2022/09/03 02:42:26;;;;;;;;;;;;;;;22.96;58.95;100771.75;7405928;19;1357;-60
2022/09/03 02:44:55;;;;;;;;;;;;;;;22.80;59.24;100783.28;7404573;19;1336;-60
2022/09/03 02:47:24;;;;;;;;;;;;;;;22.58;59.78;100787.38;7405030;19;1231;-60
2022/09/03 02:49:55;;;;;;;;;;;;;;;22.71;59.35;100795.00;7404519;19;1453;-60
2022/09/03 02:52:24;;;;;;;;;;;;;;;22.70;59.28;100798.72;7404474;19;1200;-60
2022/09/03 02:54:52;;;;;;;;;;;;;;;22.70;59.08;100787.94;7403167;19;1854;-60
2022/09/03 02:57:20;;;;;;;;;;;;;;;22.71;59.12;100778.84;7403800;19;1321;-60
2022/09/03 02:59:49;;;;;;;;;;;;;;;22.70;58.93;100796.03;7403565;19;1372;-60
2022/09/03 03:02:17;;;;;;;;;;;;;;;22.66;58.81;100786.56;7401799;19;1232;-60
2022/09/03 03:04:46;;;;;;;;;;;;;;;22.81;58.84;100793.03;7405700;19;1104;-60
2022/09/03 03:07:16;;;;;;;;;;;;;;;22.63;58.59;100787.72;7403952;19;1319;-60
2022/09/03 03:09:45;;;;;;;;;;;;;;;22.59;59.10;100780.97;7402172;19;1426;-60
2022/09/03 03:12:14;;;;;;;;;;;;;;;22.50;59.09;100786.44;7404966;19;1482;-60
2022/09/03 03:14:43;;;;;;;;;;;;;;;22.64;58.95;100783.16;7404423;19;1851;-60
2022/09/03 03:17:11;;;;;;;;;;;;;;;22.58;59.13;100784.69;7402891;19;1652;-70
2022/09/03 03:19:40;;;;;;;;;;;;;;;22.36;59.51;100786.03;7401762;19;1582;-71
2022/09/03 03:22:08;;;;;;;;;;;;;;;22.67;58.76;100788.25;7398791;19;1510;-71
2022/09/03 03:24:39;;;;;;;;;;;;;;;22.68;58.59;100789.09;7397946;19;1468;-71
2022/09/03 03:27:09;;;;;;;;;;;;;;;22.68;58.35;100768.41;7396570;19;1447;-71
2022/09/03 03:29:38;;;;;;;;;;;;;;;22.81;58.70;100789.50;7396102;19;1463;-71
2022/09/03 03:32:07;;;;;;;;;;;;;;;22.92;58.40;100789.25;7397318;19;1439;-71
2022/09/03 03:34:35;;;;;;;;;;;;;;;22.88;58.44;100787.88;7398130;19;1483;-71
2022/09/03 03:37:04;;;;;;;;;;;;;;;22.90;58.67;100799.34;7402834;19;1845;-71
2022/09/03 03:39:33;;;;;;;;;;;;;;;22.81;58.63;100787.66;7404122;19;1559;-71
2022/09/03 03:42:03;;;;;;;;;;;;;;;22.37;59.28;100778.78;7401807;19;1281;-60
2022/09/03 03:44:32;;;;;;;;;;;;;;;22.53;59.21;100786.16;7403311;19;1376;-60
2022/09/03 03:47:00;;;;;;;;;;;;;;;22.63;58.79;100801.19;7404687;19;1541;-60
2022/09/03 03:49:28;;;;;;;;;;;;;;;22.42;59.43;100787.22;7404621;19;1332;-64
2022/09/03 03:51:57;;;;;;;;;;;;;;;22.59;59.04;100780.13;7403243;19;1302;-72
2022/09/03 03:54:25;;;;;;;;;;;;;;;22.52;59.16;100795.22;7402780;19;1253;-60
2022/09/03 03:56:54;;;;;;;;;;;;;;;22.64;58.79;100799.34;7217382;19;14814;-60
2022/09/03 03:59:25;;;;;;;;;;;;;;;22.99;58.59;100792.97;7398769;19;1486;-59
2022/09/03 04:01:55;;;;;;;;;;;;;;;23.33;58.23;100800.22;7399045;19;1295;-59
2022/09/03 04:04:24;;;;;;;;;;;;;;;23.59;57.95;100802.00;7400561;19;1331;-70
2022/09/03 04:06:53;;;;;;;;;;;;;;;23.54;58.04;100804.34;7403549;19;1318;-60
2022/09/03 04:09:21;;;;;;;;;;;;;;;23.58;58.52;100797.63;7400019;19;1279;-59
2022/09/03 04:11:50;;;;;;;;;;;;;;;23.62;58.72;100815.16;7402455;19;1447;-60
2022/09/03 04:14:19;;;;;;;;;;;;;;;23.69;58.88;100818.03;7401802;19;1361;-70
2022/09/03 04:16:50;;;;;;;;;;;;;;;23.81;59.35;100825.72;7401811;19;1873;-69
2022/09/03 04:19:19;;;;;;;;;;;;;;;23.76;59.43;100817.22;7402035;19;1866;-72
2022/09/03 04:21:48;;;;;;;;;;;;;;;23.72;59.63;100826.66;7401841;19;1541;-64
2022/09/03 04:24:16;;;;;;;;;;;;;;;23.79;59.70;100843.06;7401803;19;1330;-70
2022/09/03 04:26:46;;;;;;;;;;;;;;;23.81;59.57;100830.25;7404399;19;1366;-68
2022/09/03 04:29:14;;;;;;;;;;;;;;;23.76;59.82;100832.59;7401528;19;1529;-58
2022/09/03 04:32:51;;;;;;;;;;;;;;;23.77;58.88;100845.94;7403727;19;1371;-68
2022/09/03 04:34:34;;;;;;;;;;;;;;;23.72;59.35;100853.66;7402682;19;1392;-59
2022/09/03 04:37:03;;;;;;;;;;;;;;;23.71;59.05;100827.66;7400297;19;1873;-69
2022/09/03 04:39:31;;;;;;;;;;;;;;;23.51;59.18;100837.91;7402045;19;1369;-70
2022/09/03 04:42:00;;;;;;;;;;;;;;;23.19;59.80;100849.41;7405788;19;1317;-69
2022/09/03 04:44:28;;;;;;;;;;;;;;;23.38;59.62;100843.78;7410016;19;1451;-70
2022/09/03 04:46:56;;;;;;;;;;;;;;;23.45;59.63;100821.53;7408724;19;1649;-70
2022/09/03 04:49:25;;;;;;;;;;;;;;;23.48;60.48;100834.72;7410124;19;1331;-73
2022/09/03 04:51:56;;;;;;;;;;;;;;;23.69;60.09;100842.34;7410665;19;1395;-70
2022/09/03 04:54:24;;;;;;;;;;;;;;;23.82;60.63;100849.00;7407711;19;1331;-65
2022/09/03 04:56:53;;;;;;;;;;;;;;;23.85;60.74;100864.00;7404607;19;1854;-61
2022/09/03 04:59:21;;;;;;;;;;;;;;;23.84;60.57;100845.28;7409163;19;1292;-59
2022/09/03 05:01:51;;;;;;;;;;;;;;;23.86;60.81;100854.06;7407665;19;1529;-59
2022/09/03 05:04:20;;;;;;;;;;;;;;;23.86;60.67;100872.97;7410602;19;1355;-73
2022/09/03 05:06:48;;;;;;;;;;;;;;;23.87;61.34;100861.16;7408674;19;1439;-72
2022/09/03 05:09:20;;;;;;;;;;;;;;;23.95;61.14;100862.00;7408267;19;1296;-59
2022/09/03 05:11:48;;;;;;;;;;;;;;;23.98;61.28;100864.38;7408396;19;1541;-59
2022/09/03 05:14:16;;;;;;;;;;;;;;;24.02;61.71;100860.34;7408725;19;1628;-59
2022/09/03 05:16:45;;;;;;;;;;;;;;;23.98;62.06;100867.09;7405996;19;1849;-61
2022/09/03 05:19:15;;;;;;;;;;;;;;;23.91;61.63;100849.00;7408824;19;1762;-68
2022/09/03 05:21:43;;;;;;;;;;;;;;;23.88;62.10;100858.28;7409241;19;1624;-63
2022/09/03 05:24:13;;;;;;;;;;;;;;;23.97;62.16;100862.72;7408136;19;1351;-64
2022/09/03 05:26:44;;;;;;;;;;;;;;;24.08;62.65;100869.63;7407818;19;1537;-63
2022/09/03 05:29:13;;;;;;;;;;;;;;;24.04;62.58;100865.59;7407046;19;1604;-71
2022/09/03 05:31:41;;;;;;;;;;;;;;;24.09;62.08;100871.31;7406461;19;1474;-72
2022/09/03 05:34:10;;;;;;;;;;;;;;;24.02;62.25;100862.19;7408326;19;1753;-65
2022/09/03 05:36:39;;;;;;;;;;;;;;;24.09;62.79;100874.00;7403201;19;1855;-64
2022/09/03 05:39:08;;;;;;;;;;;;;;;24.18;62.85;100874.88;7407553;19;1649;-62
2022/09/03 05:41:36;;;;;;;;;;;;;;;24.10;62.38;100873.00;7406642;19;1431;-72
2022/09/03 05:44:07;;;;;;;;;;;;;;;24.09;63.05;100876.72;7404916;19;1367;-65
2022/09/03 05:46:36;;;;;;;;;;;;;;;24.10;62.79;100873.00;7406832;19;1462;-67
2022/09/03 05:49:05;;;;;;;;;;;;;;;24.04;63.10;100889.91;7406259;19;1327;-68
2022/09/03 05:51:34;;;;;;;;;;;;;;;24.06;63.10;100878.94;7407156;19;1381;-67
2022/09/03 05:54:04;;;;;;;;;;;;;;;24.04;63.48;100881.78;7405639;19;1370;-70
2022/09/03 05:56:34;;;;;;;;;;;;;;;24.10;64.24;100883.81;7407232;19;1834;-68
2022/09/03 05:59:05;;;;;;;;;;;;;;;24.12;63.51;100889.91;7405154;19;1318;-63
2022/09/03 06:01:37;;;;;;;;;;;;;;;23.97;62.68;100883.44;7406138;19;1365;-61
2022/09/03 06:04:07;;;;;;;;;;;;;;;23.97;62.99;100891.56;7406604;19;1672;-59
2022/09/03 06:06:36;;;;;;;;;;;;;;;23.89;61.04;100902.34;7406812;19;1703;-70
2022/09/03 06:09:05;;;;;;;;;;;;;;;23.91;62.14;100908.44;7407878;19;1687;-63
2022/09/03 06:11:35;;;;;;;;;;;;;;;23.91;62.53;100900.31;7408026;19;1557;-72
2022/09/03 06:14:04;;;;;;;;;;;;;;;24.07;62.53;100921.13;7407869;19;1355;-69
2022/09/03 06:16:33;;;;;;;;;;;;;;;23.91;62.87;100905.72;7404642;19;1855;-71
2022/09/03 06:19:04;;;;;;;;;;;;;;;23.88;62.95;100911.47;7405543;19;1463;-72
2022/09/03 06:21:35;;;;;;;;;;;;;;;23.92;62.86;100907.44;7404230;19;1447;-59
2022/09/03 06:24:04;;;;;;;;;;;;;;;23.96;62.94;100914.19;7403479;19;1399;-67
2022/09/03 06:26:32;;;;;;;;;;;;;;;24.01;62.99;100911.81;7406429;19;1225;-73
2022/09/03 06:29:00;;;;;;;;;;;;;;;23.92;62.23;100910.13;7406310;19;1324;-59
2022/09/03 06:31:29;;;;;;;;;;;;;;;23.84;62.26;100913.66;7405369;19;1479;-71
2022/09/03 06:33:58;;;;;;;;;;;;;;;23.86;62.97;100908.09;7405498;19;1455;-71
2022/09/03 06:36:29;;;;;;;;;;;;;;;23.77;62.08;100913.44;7405151;19;1870;-72
2022/09/03 06:38:58;;;;;;;;;;;;;;;23.88;62.77;100916.88;7405638;19;1317;-71
2022/09/03 06:41:28;;;;;;;;;;;;;;;23.86;62.75;100919.72;7406355;19;1495;-71
2022/09/03 06:43:57;;;;;;;;;;;;;;;23.89;62.64;100929.34;7406283;19;1271;-71
2022/09/03 06:46:26;;;;;;;;;;;;;;;23.84;62.27;100912.81;7402086;19;1715;-60
2022/09/03 06:48:55;;;;;;;;;;;;;;;23.95;62.37;100912.47;7404283;19;1170;-72
2022/09/03 06:51:24;;;;;;;;;;;;;;;23.94;63.40;100902.72;7407805;19;1537;-73
2022/09/03 06:53:56;;;;;;;;;;;;;;;23.95;63.10;100917.88;7406941;19;1299;-73
2022/09/03 06:56:26;;;;;;;;;;;;;;;23.97;63.37;100932.06;7405963;19;1852;-59
2022/09/03 06:58:56;;;;;;;;;;;;;;;23.99;63.41;100938.16;7405174;19;1538;-60
2022/09/03 07:01:25;;;;;;;;;;;;;;;23.99;64.20;100935.44;7403322;19;1655;-65
2022/09/03 07:03:56;;;;;;;;;;;;;;;24.03;64.80;100942.22;7404873;19;1444;-69
2022/09/03 07:06:26;;;;;;;;;;;;;;;24.08;64.99;100937.19;7402624;19;1449;-62
2022/09/03 07:08:58;;;;;;;;;;;;;;;24.13;66.32;100940.25;7404896;19;1353;-78
2022/09/03 07:11:28;;;;;;;;;;;;;;;24.24;66.26;100951.75;7400395;19;1521;-61
2022/09/03 07:13:56;;;;;;;;;;;;;;;24.18;64.76;100940.56;7405582;19;1616;-68
2022/09/03 07:16:26;;;;;;;;;;;;;;;24.22;65.35;100951.91;7401608;19;1848;-70
2022/09/03 07:18:55;;;;;;;;;;;;;;;24.12;61.10;100962.84;7404872;19;1572;-59
2022/09/03 07:21:24;;;;;;;;;;;;;;;24.12;59.65;100968.25;7401397;19;1558;-61
2022/09/03 07:23:53;;;;;;;;;;;;;;;24.08;61.97;100969.59;7401269;19;1382;-61
2022/09/03 07:26:25;;;;;;;;;;;;;;;24.07;63.23;100973.28;7401887;19;1396;-69
2022/09/03 07:28:53;;;;;;;;;;;;;;;24.03;66.12;100950.31;7396564;19;1494;-61
2022/09/03 07:31:24;;;;;;;;;;;;;;;23.95;67.55;100966.50;7396684;19;1774;-61
2022/09/03 07:33:54;;;;;;;;;;;;;;;23.91;68.36;100946.25;7400186;19;1552;-69
2022/09/03 07:36:28;;;;;;;;;;;;;;;23.88;68.99;100960.09;7396608;19;1843;-61
2022/09/03 07:38:57;;;;;;;;;;;;;;;23.86;68.65;100968.34;7401006;19;1615;-69
2022/09/03 07:41:31;;;;;;;;;;;;;;;23.87;68.35;100966.47;7404971;19;1553;-68
2022/09/03 07:44:04;;;;;;;;;;;;;;;23.84;68.60;100948.75;7403990;19;1553;-69
2022/09/03 07:46:33;;;;;;;;;;;;;;;23.82;68.57;100958.88;7403804;19;1799;-69
2022/09/03 07:49:03;;;;;;;;;;;;;;;23.83;68.37;100960.56;7404388;19;1636;-69
2022/09/03 07:51:32;;;;;;;;;;;;;;;23.86;68.54;100951.31;7403751;19;1789;-69
2022/09/03 07:54:03;;;;;;;;;;;;;;;23.85;68.63;100957.69;7400435;19;1609;-69
2022/09/03 07:56:34;;;;;;;;;;;;;;;23.82;68.58;100946.22;7402602;19;1857;-69
2022/09/03 07:59:03;;;;;;;;;;;;;;;23.81;68.52;100960.75;7403717;19;1548;-69
2022/09/03 08:01:32;;;;;;;;;;;;;;;23.81;68.64;100949.06;7403954;19;1034;-61
2022/09/03 08:04:02;;;;;;;;;;;;;;;23.81;68.65;100955.34;7404290;19;1687;-61
2022/09/03 08:06:32;;;;;;;;;;;;;;;23.86;68.48;100962.94;7404008;19;1687;-69
2022/09/03 08:09:02;;;;;;;;;;;;;;;23.85;68.25;100961.22;7402022;19;1735;-68
2022/09/03 08:11:30;;;;;;;;;;;;;;;23.86;68.60;100948.59;7401704;19;1374;-61
2022/09/03 08:14:03;;;;;;;;;;;;;;;23.86;68.28;100962.09;7404423;19;1774;-61
2022/09/03 08:16:31;;;;;;;;;;;;;;;23.82;68.79;100957.00;7407393;19;1860;-61
2022/09/03 08:19:00;;;;;;;;;;;;;;;23.83;68.74;100941.66;7411073;19;1740;-61
2022/09/03 08:21:29;;;;;;;;;;;;;;;23.85;68.13;100965.78;7410830;19;1529;-61
2022/09/03 08:24:01;;;;;;;;;;;;;;;23.82;68.16;100943.50;7412200;19;997;-61
2022/09/03 08:26:30;;;;;;;;;;;;;;;23.84;68.25;100951.47;7412001;19;1613;-69
2022/09/03 08:29:01;;;;;;;;;;;;;;;23.84;68.02;100951.47;7411113;19;1778;-69
2022/09/03 08:31:31;;;;;;;;;;;;;;;23.84;68.11;100940.66;7411107;19;1702;-61
2022/09/03 08:34:05;;;;;;;;;;;;;;;23.84;68.12;100953.31;7405476;19;1727;-61
2022/09/03 08:36:34;;;;;;;;;;;;;;;23.82;68.08;100950.78;7407693;19;1842;-61
2022/09/03 08:39:06;;;;;;;;;;;;;;;23.86;68.13;100962.09;7408667;19;1766;-69
2022/09/03 08:41:37;;;;;;;;;;;;;;;23.80;68.00;100963.59;7410875;19;1688;-69
2022/09/03 08:44:12;;;;;;;;;;;;;;;23.82;67.76;100967.81;7408357;19;1655;-62
2022/09/03 08:46:45;;;;;;;;;;;;;;;23.85;68.02;100972.03;7409284;19;1644;-69
2022/09/03 08:49:16;;;;;;;;;;;;;;;23.82;67.89;100958.88;7406192;19;1565;-62
2022/09/03 08:51:46;;;;;;;;;;;;;;;23.88;67.78;100970.88;7410076;19;997;-68
2022/09/03 08:54:15;;;;;;;;;;;;;;;23.84;67.71;100974.94;7408578;19;1636;-61
2022/09/03 08:56:44;;;;;;;;;;;;;;;23.84;67.65;100964.13;7408598;19;1860;-69
2022/09/03 08:59:15;;;;;;;;;;;;;;;23.83;67.65;100960.56;7408538;19;1537;-68
2022/09/03 09:01:49;;;;;;;;;;;;;;;23.82;67.64;100962.41;7408686;19;1601;-69
2022/09/03 09:04:24;;;;;;;;;;;;;;;23.81;67.82;100965.28;7410436;19;1632;-61
2022/09/03 09:06:54;;;;;;;;;;;;;;;23.84;67.59;100978.47;7410347;19;1271;-69
2022/09/03 09:09:34;;;;;;;;;;;;;;;23.83;67.50;100971.34;7408416;19;1637;-61
2022/09/03 09:12:10;;;;;;;;;;;;;;;23.81;67.63;100976.94;7405980;19;1770;-69
2022/09/03 09:14:47;;;;;;;;;;;;;;;23.86;67.67;100986.41;7409281;19;1621;-61
2022/09/03 09:17:30;;;;;;;;;;;;;;;23.82;67.34;100989.41;7407503;19;2190;-69
2022/09/03 09:20:02;;;;;;;;;;;;;;;23.82;67.56;100981.31;7408346;19;1553;-61
2022/09/03 09:22:32;;;;;;;;;;;;;;;23.81;67.23;100985.03;7406932;19;1405;-61
2022/09/03 09:25:04;;;;;;;;;;;;;;;23.84;67.37;100980.31;7406934;19;1707;-69
2022/09/03 09:27:34;;;;;;;;;;;;;;;23.81;67.53;100990.44;7406880;19;1688;-69
2022/09/03 09:30:07;;;;;;;;;;;;;;;23.83;67.29;100992.97;7409315;19;1615;-61
2022/09/03 09:32:37;;;;;;;;;;;;;;;23.78;67.39;100976.41;7409977;19;1603;-69
2022/09/03 09:35:09;;;;;;;;;;;;;;;23.79;67.07;100992.44;7409570;19;988;-61
2022/09/03 09:37:48;;;;;;;;;;;;;;;23.80;67.34;100991.44;7406940;19;1849;-69
2022/09/03 09:40:25;;;;;;;;;;;;;;;23.80;67.20;100998.69;7404700;19;1632;-61
2022/09/03 09:42:57;;;;;;;;;;;;;;;23.79;67.34;100997.00;7407127;19;1568;-61
2022/09/03 09:45:28;;;;;;;;;;;;;;;23.79;67.34;100989.72;7408765;19;1572;-66
2022/09/03 09:47:58;;;;;;;;;;;;;;;23.78;67.05;101008.81;7408393;19;1565;-61
2022/09/03 09:50:26;;;;;;;;;;;;;;;23.80;67.03;100996.84;7410185;19;995;-61
2022/09/03 09:53:04;;;;;;;;;;;;;;;23.79;67.04;101005.94;7405679;19;1758;-69
2022/09/03 09:55:33;;;;;;;;;;;;;;;23.76;67.01;101000.00;7408843;19;1556;-69
2022/09/03 09:58:09;;;;;;;;;;;;;;;23.80;67.04;101010.34;7406700;19;1829;-69
2022/09/03 10:00:41;;;;;;;;;;;;;;;23.80;67.03;101015.75;7405641;19;1715;-61
2022/09/03 10:03:12;;;;;;;;;;;;;;;23.76;67.03;101005.41;7406860;19;1601;-69
2022/09/03 10:05:42;;;;;;;;;;;;;;;23.81;66.78;101014.75;7406590;19;1529;-69
2022/09/03 10:08:20;;;;;;;;;;;;;;;23.84;66.95;101008.16;7408557;19;1613;-69
2022/09/03 10:10:50;;;;;;;;;;;;;;;23.80;66.97;101015.75;7408259;19;1607;-69
2022/09/03 10:13:21;;;;;;;;;;;;;;;23.82;66.75;101005.63;7407744;19;1569;-62
2022/09/03 10:15:56;;;;;;;;;;;;;;;23.82;66.87;101029.94;7408445;19;1105;-61
2022/09/03 10:18:29;;;;;;;;;;;;;;;23.82;66.75;101029.94;7407362;19;1857;-69
2022/09/03 10:21:05;;;;;;;;;;;;;;;23.82;66.89;101040.72;7406610;19;1659;-69
2022/09/03 10:23:35;;;;;;;;;;;;;;;23.79;66.81;101032.94;7402134;19;1705;-68
2022/09/03 10:26:06;;;;;;;;;;;;;;;23.79;66.63;101043.75;7407661;19;944;-68
2022/09/03 10:28:40;;;;;;;;;;;;;;;23.80;66.92;101047.31;7402998;19;1510;-69
2022/09/03 10:31:30;;;;;;;;;;;;;;;23.78;66.91;101050.16;7402843;19;1580;-61
2022/09/03 10:34:04;;;;;;;;;;;;;;;23.79;67.00;101042.91;7406161;19;1390;-69
2022/09/03 10:36:38;;;;;;;;;;;;;;;23.91;66.52;101073.19;7400853;19;1376;-68
2022/09/03 10:39:07;;;;;;;;;;;;;;;23.85;66.35;101068.44;7399512;19;1847;-68
2022/09/03 10:41:43;;;;;;;;;;;;;;;23.82;66.72;101067.75;7404365;19;1375;-61
2022/09/03 10:44:23;;;;;;;;;;;;;;;23.87;66.22;101069.09;7405802;19;1569;-60
2022/09/03 10:47:02;;;;;;;;;;;;;;;23.88;66.17;101068.97;7398434;19;1422;-61
2022/09/03 10:49:42;;;;;;;;;;;;;;;23.82;67.04;101065.03;7400326;19;1526;-61
2022/09/03 10:52:16;;;;;;;;;;;;;;;23.79;67.08;101069.91;7406139;19;1608;-62
2022/09/03 10:54:53;;;;;;;;;;;;;;;23.79;67.07;101072.59;7403532;19;1383;-67
2022/09/03 10:57:31;;;;;;;;;;;;;;;23.77;66.79;101070.06;7405865;19;1851;-68
2022/09/03 11:00:05;;;;;;;;;;;;;;;23.80;66.86;101066.22;7406584;19;1758;-62
2022/09/03 11:02:54;;;;;;;;;;;;;;;23.77;66.78;101067.34;7403531;19;1795;-61
2022/09/03 11:05:29;;;;;;;;;;;;;;;23.78;66.70;101074.47;7402966;19;1870;-68
2022/09/03 11:08:02;;;;;;;;;;;;;;;23.79;66.54;101073.44;7405514;19;1641;-68
2022/09/03 11:10:31;;;;;;;;;;;;;;;23.79;66.58;101064.50;7404481;19;1575;-68
2022/09/03 11:13:08;;;;;;;;;;;;;;;23.78;66.91;101069.06;7403211;19;1818;-68
2022/09/03 11:15:40;;;;;;;;;;;;;;;23.80;66.75;101085.13;7403051;19;1682;-61
2022/09/03 11:18:15;;;;;;;;;;;;;;;23.79;66.68;101078.00;7401349;19;1849;-68
2022/09/03 11:20:48;;;;;;;;;;;;;;;23.78;66.61;101079.88;7401352;19;1553;-61
2022/09/03 11:23:18;;;;;;;;;;;;;;;23.77;66.59;101080.84;7400904;19;1310;-61
2022/09/03 11:25:51;;;;;;;;;;;;;;;23.79;66.87;101086.09;7402627;19;1767;-68
2022/09/03 11:28:25;;;;;;;;;;;;;;;23.81;66.51;101089.50;7404832;19;1623;-68
2022/09/03 11:31:12;;;;;;;;;;;;;;;23.76;66.91;101089.13;7404974;19;1771;-68
2022/09/03 11:33:42;;;;;;;;;;;;;;;23.79;66.73;101084.25;7402785;19;1554;-68
2022/09/03 11:36:13;;;;;;;;;;;;;;;23.76;66.80;101075.63;7404019;19;1565;-61
2022/09/03 11:38:41;;;;;;;;;;;;;;;23.77;66.78;101098.88;7404204;19;1849;-62
2022/09/03 11:52:31;;;;;;;;;;;;;;;23.76;66.49;101092.66;7406085;19;1797;-37
2022/09/03 11:54:59;;;;;;;;;;;;;;;23.75;66.51;101092.81;7409755;19;1036;-37
2022/09/03 11:57:30;;;;;;;;;;;;;;;23.77;66.54;101099.75;7408502;19;2079;-37
2022/09/03 12:00:12;;;;;;;;;;;;;;;23.82;66.66;101108.25;7405115;19;1749;-37
2022/09/03 12:02:45;;;;;;;;;;;;;;;23.78;66.49;101097.94;7405722;19;1834;-38
2022/09/03 12:05:20;;;;;;;;;;;;;;;23.77;66.37;101097.06;7409756;19;1930;-38
2022/09/03 12:08:06;;;;;;;;;;;;;;;23.81;66.50;101095.75;7406500;19;977;-37
2022/09/03 12:22:20;;;;;;;;;;;;;;;23.75;66.45;101090.94;7408602;19;805;-38
2022/09/03 12:24:49;;;;;;;;;;;;;;;23.76;66.62;101087.25;7406932;19;1913;-38
2022/09/03 12:27:23;;;;;;;;;;;;;;;23.74;66.76;101105.47;7409959;19;1856;-38
2022/09/03 12:29:58;;;;;;;;;;;;;;;23.76;66.72;101089.94;7404905;19;1562;-38
2022/09/03 12:32:28;;;;;;;;;;;;;;;23.72;66.61;101102.09;7406443;19;1819;-38
2022/09/03 12:34:57;;;;;;;;;;;;;;;23.75;66.45;101096.34;7407452;19;1924;-37
2022/09/03 12:37:28;;;;;;;;;;;;;;;23.74;66.61;101094.66;7406711;19;966;-38
2022/09/03 12:39:57;;;;;;;;;;;;;;;23.74;66.59;101091.13;7405164;19;1850;-37
2022/09/03 12:42:27;;;;;;;;;;;;;;;23.74;66.40;101091.13;7407343;19;1954;-37
2022/09/03 12:44:56;;;;;;;;;;;;;;;23.73;66.63;101079.47;7406131;19;2066;-38
2022/09/03 12:47:25;;;;;;;;;;;;;;;23.76;66.37;101098.06;7409992;19;1975;-37
2022/09/03 12:49:54;;;;;;;;;;;;;;;23.74;66.62;101094.66;7408984;19;1839;-37
2022/09/03 12:52:26;;;;;;;;;;;;;;;23.79;66.69;101099.63;7404118;19;1847;-38
2022/09/03 12:54:59;;;;;;;;;;;;;;;23.78;66.38;101100.63;7407158;19;962;-37
2022/09/03 12:57:32;;;;;;;;;;;;;;;23.75;66.52;101090.94;7407676;19;1263;-38
2022/09/03 13:00:04;;;;;;;;;;;;;;;23.72;66.49;101091.28;7404124;19;1846;-37
2022/09/03 13:02:38;;;;;;;;;;;;;;;23.75;66.59;101100.91;7402594;19;1998;-38
2022/09/03 13:05:07;;;;;;;;;;;;;;;23.77;66.51;101101.59;7406547;19;1812;-38
2022/09/03 13:07:38;;;;;;;;;;;;;;;23.76;66.29;101098.06;7406116;19;2061;-38
2022/09/03 13:10:18;;;;;;;;;;;;;;;23.77;66.27;101102.47;7406260;19;1832;-38
2022/09/03 13:12:49;;;;;;;;;;;;;;;23.78;66.34;101100.63;7406740;19;1924;-38
2022/09/03 13:15:22;;;;;;;;;;;;;;;23.74;66.30;101091.13;7404417;19;1645;-38
2022/09/03 13:17:59;;;;;;;;;;;;;;;23.78;66.57;101090.66;7405100;19;1863;-38
2022/09/03 13:20:34;;;;;;;;;;;;;;;23.73;66.37;101095.66;7406438;19;1843;-38
2022/09/03 13:23:11;;;;;;;;;;;;;;;23.74;66.33;101088.44;7405568;19;1003;-38
2022/09/03 13:25:47;;;;;;;;;;;;;;;23.78;66.37;101101.47;7403037;19;2019;-38
2022/09/03 13:28:26;;;;;;;;;;;;;;;23.76;66.37;101102.63;7406205;19;1831;-38
2022/09/03 13:30:57;;;;;;;;;;;;;;;23.71;66.62;101086.88;7405460;19;1614;-38
2022/09/03 13:33:28;;;;;;;;;;;;;;;23.74;66.52;101083.03;7405490;19;1820;-38
2022/09/03 13:36:01;;;;;;;;;;;;;;;23.71;66.50;101092.25;7403900;19;1952;-39